Time;durP1;ratioP1;P1;durP2;ratioP2;P2;SDS_P1;SDS_P2;PMS_P1;PMS_P2;Temp;Humidity;BMP_temperature;BMP_pressure;BME280_temperature;BME280_humidity;BME280_pressure;Samples;Min_cycle;Max_cycle;Signal;HPM_P1;HPM_P2
2023/10/18 00:01:18;;;;;;;;;;;8.90;80.90;;;;;;5060734;28;19998;-78
2023/10/18 00:03:45;;;;;;;;;;;9.00;81.80;;;;;;5060728;28;19976;-78
2023/10/18 00:06:16;;;;;;;;;;;9.00;81.00;;;;;;5058831;28;19991;-76
2023/10/18 00:08:42;;;;;;;;;;;9.00;81.00;;;;;;5062097;28;20727;-78
2023/10/18 00:11:08;;;;;;;;;;;9.00;81.10;;;;;;5065895;28;19994;-77
2023/10/18 00:13:34;;;;;;;;;;;8.90;81.10;;;;;;5063915;28;19978;-78
2023/10/18 00:16:03;;;;;;;;;;;8.90;81.20;;;;;;5062426;28;19999;-77
2023/10/18 00:18:30;;;;;;;;;;;8.90;81.20;;;;;;5062817;28;19975;-78
2023/10/18 00:21:00;;;;;;;;;;;8.90;81.20;;;;;;5067385;28;19975;-78
2023/10/18 00:23:27;;;;;;;;;;;8.90;81.20;;;;;;5063942;28;20088;-76
2023/10/18 00:25:53;;;;;;;;;;;8.90;81.20;;;;;;5059858;28;20030;-78
2023/10/18 00:28:20;;;;;;;;;;;8.80;81.20;;;;;;5061041;28;19980;-77
2023/10/18 00:30:49;;;;;;;;;;;8.80;81.20;;;;;;5054438;28;20086;-77
2023/10/18 00:33:18;;;;;;;;;;;8.80;81.30;;;;;;5061776;28;20070;-77
2023/10/18 00:35:47;;;;;;;;;;;8.80;81.20;;;;;;5065974;28;19995;-77
2023/10/18 00:38:16;;;;;;;;;;;8.80;81.20;;;;;;5064201;28;19989;-77
2023/10/18 00:40:45;;;;;;;;;;;8.80;81.20;;;;;;5061433;28;19989;-78
2023/10/18 00:43:19;;;;;;;;;;;8.80;81.20;;;;;;5065632;28;20092;-76
2023/10/18 00:45:47;;;;;;;;;;;8.70;81.20;;;;;;5060482;28;19995;-77
2023/10/18 00:48:14;;;;;;;;;;;8.70;81.30;;;;;;5062662;28;20019;-78
2023/10/18 00:50:45;;;;;;;;;;;8.70;81.40;;;;;;5059086;28;19991;-77
2023/10/18 00:53:11;;;;;;;;;;;8.70;81.30;;;;;;5058900;28;19983;-78
2023/10/18 00:55:38;;;;;;;;;;;8.70;81.40;;;;;;5060099;28;20002;-77
2023/10/18 00:58:09;;;;;;;;;;;8.60;81.40;;;;;;5063397;28;19986;-77
2023/10/18 01:00:37;;;;;;;;;;;8.70;81.40;;;;;;5063557;28;19996;-77
2023/10/18 01:03:06;;;;;;;;;;;8.60;81.40;;;;;;5062574;28;20002;-77
2023/10/18 01:05:35;;;;;;;;;;;8.60;81.40;;;;;;5060352;28;19991;-77
2023/10/18 01:08:07;;;;;;;;;;;8.60;81.50;;;;;;5062812;28;20074;-77
2023/10/18 01:10:33;;;;;;;;;;;8.60;81.40;;;;;;5058746;28;19990;-77
2023/10/18 01:13:01;;;;;;;;;;;8.60;81.40;;;;;;5069564;28;19983;-77
2023/10/18 01:15:28;;;;;;;;;;;8.60;81.50;;;;;;5063508;28;20043;-77
2023/10/18 01:17:57;;;;;;;;;;;8.60;81.60;;;;;;5062651;28;19982;-76
2023/10/18 01:20:29;;;;;;;;;;;8.60;81.60;;;;;;5061877;28;20001;-77
2023/10/18 01:22:55;;;;;;;;;;;8.50;81.60;;;;;;5061684;28;19975;-77
2023/10/18 01:25:24;;;;;;;;;;;8.50;81.60;;;;;;5062800;28;20473;-77
2023/10/18 01:27:51;;;;;;;;;;;8.50;81.50;;;;;;5063485;28;19976;-77
2023/10/18 01:30:19;;;;;;;;;;;8.50;81.60;;;;;;5057732;28;20584;-77
2023/10/18 01:32:46;;;;;;;;;;;8.50;81.70;;;;;;5060814;28;20074;-76
2023/10/18 01:35:15;;;;;;;;;;;8.50;81.70;;;;;;5062631;28;20015;-77
2023/10/18 01:37:43;;;;;;;;;;;8.40;81.60;;;;;;5055863;28;19998;-78
2023/10/18 01:40:20;;;;;;;;;;;8.50;82.40;;;;;;5062593;28;20078;-78
2023/10/18 01:42:49;;;;;;;;;;;8.40;81.60;;;;;;5059957;28;19981;-77
2023/10/18 01:45:22;;;;;;;;;;;8.40;81.70;;;;;;5062400;28;19995;-77
2023/10/18 01:47:49;;;;;;;;;;;8.40;81.70;;;;;;5062652;28;20068;-77
2023/10/18 01:50:18;;;;;;;;;;;8.40;81.70;;;;;;5061436;28;20413;-78
2023/10/18 01:52:45;;;;;;;;;;;8.40;81.70;;;;;;5059587;28;19987;-77
2023/10/18 01:55:12;;;;;;;;;;;8.30;81.60;;;;;;5064996;28;20090;-77
2023/10/18 01:57:39;;;;;;;;;;;8.30;81.70;;;;;;5059980;28;19979;-75
2023/10/18 02:00:19;;;;;;;;;;;8.30;81.70;;;;;;5061263;28;19975;-77
2023/10/18 02:02:47;;;;;;;;;;;8.30;81.80;;;;;;5058034;28;19995;-76
2023/10/18 02:05:16;;;;;;;;;;;8.30;82.00;;;;;;5061896;28;19991;-77
2023/10/18 02:07:46;;;;;;;;;;;8.30;81.90;;;;;;5061567;28;20509;-77
2023/10/18 02:10:20;;;;;;;;;;;8.30;81.90;;;;;;5059752;28;19987;-77
2023/10/18 02:12:46;;;;;;;;;;;8.30;81.90;;;;;;5061587;28;19999;-77
2023/10/18 02:15:14;;;;;;;;;;;8.20;81.90;;;;;;5059877;28;20624;-77
2023/10/18 02:17:43;;;;;;;;;;;8.30;82.00;;;;;;5057856;28;19986;-76
2023/10/18 02:20:16;;;;;;;;;;;8.20;82.00;;;;;;5054711;28;20739;-77
2023/10/18 02:22:46;;;;;;;;;;;8.20;82.00;;;;;;5060459;28;19971;-77
2023/10/18 02:25:24;;;;;;;;;;;8.20;82.00;;;;;;5060120;28;19998;-78
2023/10/18 02:27:51;;;;;;;;;;;8.20;82.10;;;;;;5068641;28;20690;-77
2023/10/18 02:30:19;;;;;;;;;;;8.20;82.20;;;;;;5062775;28;19987;-77
2023/10/18 02:32:48;;;;;;;;;;;8.20;82.30;;;;;;5067143;28;19998;-76
2023/10/18 02:35:16;;;;;;;;;;;8.20;82.20;;;;;;5063296;28;19995;-77
2023/10/18 02:37:43;;;;;;;;;;;8.20;82.40;;;;;;5065126;28;19975;-78
2023/10/18 02:40:28;;;;;;;;;;;8.20;82.40;;;;;;5070028;28;19983;-77
2023/10/18 02:42:55;;;;;;;;;;;8.10;82.50;;;;;;5065800;28;19971;-77
2023/10/18 02:45:24;;;;;;;;;;;8.10;82.40;;;;;;5064290;28;20073;-76
2023/10/18 02:47:51;;;;;;;;;;;8.10;82.40;;;;;;5060036;28;19975;-77
2023/10/18 02:50:18;;;;;;;;;;;8.10;82.30;;;;;;5067575;28;20022;-77
2023/10/18 02:52:46;;;;;;;;;;;8.10;82.40;;;;;;5062596;28;19991;-77
2023/10/18 02:55:18;;;;;;;;;;;8.10;82.40;;;;;;5064482;28;20074;-77
2023/10/18 02:57:46;;;;;;;;;;;8.10;82.40;;;;;;5063352;28;19979;-76
2023/10/18 03:00:15;;;;;;;;;;;8.10;82.40;;;;;;5064830;28;20030;-77
2023/10/18 03:02:44;;;;;;;;;;;8.00;82.50;;;;;;5063797;28;19979;-77
2023/10/18 03:05:11;;;;;;;;;;;8.00;82.60;;;;;;5063828;28;20077;-77
2023/10/18 03:07:38;;;;;;;;;;;8.00;82.50;;;;;;5065483;28;20033;-77
2023/10/18 03:10:11;;;;;;;;;;;8.00;82.60;;;;;;5069901;28;20071;-77
2023/10/18 03:12:38;;;;;;;;;;;8.00;82.60;;;;;;5067534;28;20002;-77
2023/10/18 03:15:08;;;;;;;;;;;8.00;82.70;;;;;;5068476;28;20087;-77
2023/10/18 03:17:37;;;;;;;;;;;8.00;82.70;;;;;;5065948;28;19995;-77
2023/10/18 03:20:19;;;;;;;;;;;8.00;82.70;;;;;;5069986;28;20021;-77
2023/10/18 03:22:48;;;;;;;;;;;8.00;82.70;;;;;;5067580;28;20013;-77
2023/10/18 03:25:16;;;;;;;;;;;8.00;82.70;;;;;;5068299;28;20001;-77
2023/10/18 03:27:50;;;;;;;;;;;7.90;82.60;;;;;;5066602;28;19979;-78
2023/10/18 03:30:18;;;;;;;;;;;8.00;82.80;;;;;;5066594;28;20478;-77
2023/10/18 03:32:49;;;;;;;;;;;7.90;82.70;;;;;;5067645;28;20002;-77
2023/10/18 03:35:20;;;;;;;;;;;7.90;82.70;;;;;;5065958;28;20093;-77
2023/10/18 03:37:46;;;;;;;;;;;7.90;82.70;;;;;;5064622;28;20019;-77
2023/10/18 03:40:19;;;;;;;;;;;7.90;82.70;;;;;;5068041;28;20078;-77
2023/10/18 03:42:46;;;;;;;;;;;7.90;82.80;;;;;;5068901;28;19998;-76
2023/10/18 03:45:20;;;;;;;;;;;7.90;82.90;;;;;;5066520;28;19991;-77
2023/10/18 03:47:57;;;;;;;;;;;7.90;83.00;;;;;;5062475;28;19975;-76
2023/10/18 03:50:31;;;;;;;;;;;7.90;83.00;;;;;;5063805;28;19981;-76
2023/10/18 03:52:58;;;;;;;;;;;7.80;83.00;;;;;;5064398;28;20094;-77
2023/10/18 03:55:36;;;;;;;;;;;7.80;83.10;;;;;;5066259;28;20098;-77
2023/10/18 03:58:04;;;;;;;;;;;7.80;83.00;;;;;;5060473;28;19975;-79
2023/10/18 04:00:38;;;;;;;;;;;7.80;83.20;;;;;;5060767;28;19999;-79
2023/10/18 04:03:08;;;;;;;;;;;7.80;83.10;;;;;;5063048;28;19971;-78
2023/10/18 04:05:41;;;;;;;;;;;7.80;83.10;;;;;;5064021;28;20749;-78
2023/10/18 04:08:08;;;;;;;;;;;7.80;83.10;;;;;;5062222;28;20006;-77
2023/10/18 04:10:36;;;;;;;;;;;7.80;83.10;;;;;;5062029;28;19983;-77
2023/10/18 04:13:03;;;;;;;;;;;7.80;83.10;;;;;;5061153;28;20061;-78
2023/10/18 04:15:36;;;;;;;;;;;7.70;83.00;;;;;;5061457;28;20034;-78
2023/10/18 04:18:11;;;;;;;;;;;7.70;83.10;;;;;;5062306;28;19998;-77
2023/10/18 04:20:46;;;;;;;;;;;7.70;83.10;;;;;;5065326;28;19979;-76
2023/10/18 04:23:19;;;;;;;;;;;7.70;83.20;;;;;;5064423;28;19985;-76
2023/10/18 04:25:57;;;;;;;;;;;7.70;83.40;;;;;;5064650;28;20082;-77
2023/10/18 04:28:23;;;;;;;;;;;7.70;83.30;;;;;;5062509;28;19979;-78
2023/10/18 04:30:52;;;;;;;;;;;7.70;83.30;;;;;;5062299;28;19995;-77
2023/10/18 04:33:24;;;;;;;;;;;7.70;83.20;;;;;;5062395;28;20524;-79
2023/10/18 04:35:55;;;;;;;;;;;7.70;83.30;;;;;;5064676;28;19995;-79
2023/10/18 04:38:22;;;;;;;;;;;7.70;83.30;;;;;;5063262;28;20058;-77
2023/10/18 04:40:51;;;;;;;;;;;7.70;83.20;;;;;;5061945;28;19980;-77
2023/10/18 04:43:22;;;;;;;;;;;7.60;83.20;;;;;;5063055;28;19979;-79
2023/10/18 04:45:54;;;;;;;;;;;7.60;83.40;;;;;;5062022;28;20006;-76
2023/10/18 04:48:43;;;;;;;;;;;7.60;83.30;;;;;;5057512;28;20032;-78
2023/10/18 04:51:08;;;;;;;;;;;7.60;83.30;;;;;;5058097;28;20058;-78
2023/10/18 04:53:35;;;;;;;;;;;7.60;83.40;;;;;;5060893;28;19971;-77
2023/10/18 04:56:03;;;;;;;;;;;7.60;83.70;;;;;;5062882;28;20110;-77
2023/10/18 04:58:29;;;;;;;;;;;7.50;84.70;;;;;;5065570;28;19986;-76
2023/10/18 05:00:59;;;;;;;;;;;7.40;85.00;;;;;;5062889;28;19987;-78
2023/10/18 05:03:30;;;;;;;;;;;7.40;85.10;;;;;;5064290;28;19984;-77
2023/10/18 05:05:57;;;;;;;;;;;7.40;85.10;;;;;;5064169;28;20271;-78
2023/10/18 05:08:23;;;;;;;;;;;7.40;85.00;;;;;;5062201;28;19983;-77
2023/10/18 05:10:52;;;;;;;;;;;7.40;84.80;;;;;;5061683;28;20616;-77
2023/10/18 05:13:32;;;;;;;;;;;7.40;84.70;;;;;;5069199;28;20038;-77
2023/10/18 05:16:02;;;;;;;;;;;7.40;84.50;;;;;;5063457;28;19995;-77
2023/10/18 05:18:30;;;;;;;;;;;7.40;84.30;;;;;;5063583;28;20005;-76
2023/10/18 05:20:57;;;;;;;;;;;7.50;84.30;;;;;;5062542;28;19976;-77
2023/10/18 05:23:26;;;;;;;;;;;7.40;84.10;;;;;;5061389;28;19979;-77
2023/10/18 05:26:04;;;;;;;;;;;7.40;84.00;;;;;;5065282;28;19999;-77
2023/10/18 05:28:42;;;;;;;;;;;7.50;84.10;;;;;;5064229;28;20074;-77
2023/10/18 05:31:26;;;;;;;;;;;7.50;84.00;;;;;;5061256;28;20013;-77
2023/10/18 05:34:01;;;;;;;;;;;7.50;83.80;;;;;;5062994;28;19994;-77
2023/10/18 05:36:42;;;;;;;;;;;7.50;83.90;;;;;;5062944;28;19994;-77
2023/10/18 05:39:27;;;;;;;;;;;7.40;83.90;;;;;;5060065;28;19976;-77
2023/10/18 05:41:59;;;;;;;;;;;7.40;83.80;;;;;;5064494;28;19975;-78
2023/10/18 05:44:27;;;;;;;;;;;7.40;83.80;;;;;;5064306;28;19975;-77
2023/10/18 05:46:54;;;;;;;;;;;7.40;83.80;;;;;;5064805;28;19998;-77
2023/10/18 05:49:25;;;;;;;;;;;7.40;83.80;;;;;;5063170;28;19983;-77
2023/10/18 05:51:58;;;;;;;;;;;7.40;83.80;;;;;;5059982;28;20002;-76
2023/10/18 05:54:28;;;;;;;;;;;7.40;83.80;;;;;;5060093;28;19983;-77
2023/10/18 05:56:56;;;;;;;;;;;7.40;83.80;;;;;;5062451;28;19979;-76
2023/10/18 05:59:31;;;;;;;;;;;7.40;83.70;;;;;;5062347;28;19995;-77
2023/10/18 06:02:00;;;;;;;;;;;7.40;83.80;;;;;;5057978;28;19994;-77
2023/10/18 06:04:27;;;;;;;;;;;7.40;83.80;;;;;;5064135;28;19976;-77
2023/10/18 06:06:57;;;;;;;;;;;7.30;83.70;;;;;;5064961;28;20062;-77
2023/10/18 06:09:27;;;;;;;;;;;7.30;83.80;;;;;;5062332;28;19987;-76
2023/10/18 06:11:56;;;;;;;;;;;7.40;83.90;;;;;;5058508;28;19982;-76
2023/10/18 06:14:25;;;;;;;;;;;7.30;83.90;;;;;;5060062;28;20533;-76
2023/10/18 06:16:52;;;;;;;;;;;7.30;83.80;;;;;;5059461;28;20035;-76
2023/10/18 06:19:27;;;;;;;;;;;7.30;83.90;;;;;;5064582;28;20479;-76
2023/10/18 06:21:59;;;;;;;;;;;7.30;83.90;;;;;;5063713;28;19982;-77
2023/10/18 06:24:26;;;;;;;;;;;7.30;84.00;;;;;;5060515;28;20718;-77
2023/10/18 06:26:53;;;;;;;;;;;7.30;83.90;;;;;;5062009;28;20075;-77
2023/10/18 06:29:23;;;;;;;;;;;7.30;84.00;;;;;;5060959;28;20656;-76
2023/10/18 06:31:50;;;;;;;;;;;7.30;83.90;;;;;;5063154;28;20084;-76
2023/10/18 06:34:17;;;;;;;;;;;7.30;84.10;;;;;;5057586;28;19996;-77
2023/10/18 06:36:44;;;;;;;;;;;7.30;84.20;;;;;;5065119;28;20066;-77
2023/10/18 06:39:24;;;;;;;;;;;7.30;84.10;;;;;;5065090;28;19990;-77
2023/10/18 06:41:52;;;;;;;;;;;7.20;84.10;;;;;;5063959;28;19986;-77
2023/10/18 06:44:18;;;;;;;;;;;7.30;84.90;;;;;;5062672;28;19980;-77
2023/10/18 06:46:47;;;;;;;;;;;7.20;84.00;;;;;;5063002;28;19995;-77
2023/10/18 06:49:14;;;;;;;;;;;7.20;84.10;;;;;;5063874;28;20022;-77
2023/10/18 06:51:43;;;;;;;;;;;7.20;84.00;;;;;;5066605;28;19975;-77
2023/10/18 06:54:13;;;;;;;;;;;7.20;84.00;;;;;;5063778;28;20026;-76
2023/10/18 06:56:40;;;;;;;;;;;7.20;83.90;;;;;;5065059;28;19976;-76
2023/10/18 06:59:07;;;;;;;;;;;7.20;83.90;;;;;;5062883;28;19991;-76
2023/10/18 07:01:34;;;;;;;;;;;7.20;84.00;;;;;;5063777;28;19992;-75
2023/10/18 07:04:04;;;;;;;;;;;7.20;84.00;;;;;;5064503;28;19975;-75
2023/10/18 07:06:35;;;;;;;;;;;7.20;83.90;;;;;;5065918;28;20085;-76
2023/10/18 07:09:09;;;;;;;;;;;7.30;84.00;;;;;;5066469;28;19979;-77
2023/10/18 07:11:39;;;;;;;;;;;7.20;84.00;;;;;;5064009;28;20015;-76
2023/10/18 07:14:06;;;;;;;;;;;7.20;84.00;;;;;;5071361;28;20488;-77
2023/10/18 07:16:38;;;;;;;;;;;7.20;84.20;;;;;;5057509;28;19999;-76
2023/10/18 07:19:21;;;;;;;;;;;7.20;84.20;;;;;;5065767;28;20380;-76
2023/10/18 07:21:48;;;;;;;;;;;7.20;84.20;;;;;;5060652;28;19975;-76
2023/10/18 07:24:17;;;;;;;;;;;7.20;84.30;;;;;;5061348;28;19979;-77
2023/10/18 07:26:46;;;;;;;;;;;7.20;84.20;;;;;;5062703;28;19987;-76
2023/10/18 07:29:13;;;;;;;;;;;7.20;84.30;;;;;;5059511;28;20372;-76
2023/10/18 07:31:44;;;;;;;;;;;7.30;84.30;;;;;;5061103;28;20000;-76
2023/10/18 07:34:18;;;;;;;;;;;7.20;84.30;;;;;;5059980;28;19993;-77
2023/10/18 07:36:45;;;;;;;;;;;7.20;84.20;;;;;;5063735;28;20483;-76
2023/10/18 07:39:12;;;;;;;;;;;7.30;84.10;;;;;;5066423;28;19978;-76
2023/10/18 07:41:40;;;;;;;;;;;7.30;84.20;;;;;;5060255;28;19980;-76
2023/10/18 07:44:07;;;;;;;;;;;7.20;84.30;;;;;;5062685;28;20066;-76
2023/10/18 07:46:34;;;;;;;;;;;7.20;84.50;;;;;;5060582;28;19995;-76
2023/10/18 07:49:04;;;;;;;;;;;7.20;84.40;;;;;;5063426;28;19985;-76
2023/10/18 07:51:34;;;;;;;;;;;7.20;84.50;;;;;;5062185;28;20045;-76
2023/10/18 07:54:01;;;;;;;;;;;7.30;84.50;;;;;;5062274;28;20002;-76
2023/10/18 07:56:29;;;;;;;;;;;7.30;84.40;;;;;;5055972;28;20003;-76
2023/10/18 07:59:26;;;;;;;;;;;7.30;84.30;;;;;;5067557;28;19975;-76
2023/10/18 08:01:48;;;;;;;;;;;7.30;84.40;;;;;;5062905;28;20578;-76
2023/10/18 08:04:17;;;;;;;;;;;7.30;84.30;;;;;;5066167;28;20010;-76
2023/10/18 08:06:45;;;;;;;;;;;7.30;84.40;;;;;;5064199;28;20440;-77
2023/10/18 08:09:12;;;;;;;;;;;7.30;84.20;;;;;;5063715;28;19983;-77
2023/10/18 08:11:39;;;;;;;;;;;7.30;84.20;;;;;;5060494;28;20696;-76
2023/10/18 08:14:16;;;;;;;;;;;7.30;84.20;;;;;;5062131;28;19999;-76
2023/10/18 08:16:52;;;;;;;;;;;7.30;84.20;;;;;;5059156;28;19997;-76
2023/10/18 08:19:22;;;;;;;;;;;7.30;84.20;;;;;;5068331;28;20065;-76
2023/10/18 08:22:05;;;;;;;;;;;7.40;84.10;;;;;;5060616;28;19979;-77
2023/10/18 08:24:34;;;;;;;;;;;7.30;84.10;;;;;;5055948;28;19991;-76
2023/10/18 08:27:09;;;;;;;;;;;7.40;84.10;;;;;;5064240;28;20563;-70
2023/10/18 08:29:36;;;;;;;;;;;7.40;84.00;;;;;;5070862;28;19985;-72
2023/10/18 08:32:06;;;;;;;;;;;7.40;84.10;;;;;;5064593;28;21342;-71
2023/10/18 08:34:34;;;;;;;;;;;7.40;84.20;;;;;;5067635;28;20006;-72
2023/10/18 08:37:03;;;;;;;;;;;7.40;84.10;;;;;;5074264;28;20066;-71
2023/10/18 08:39:30;;;;;;;;;;;7.40;84.20;;;;;;5064606;28;19982;-72
2023/10/18 08:42:01;;;;;;;;;;;7.40;84.20;;;;;;5068830;28;20052;-71
2023/10/18 08:44:30;;;;;;;;;;;7.40;84.30;;;;;;5064560;28;19980;-71
2023/10/18 08:47:11;;;;;;;;;;;7.40;84.40;;;;;;5066787;28;20002;-72
2023/10/18 08:49:44;;;;;;;;;;;7.40;84.30;;;;;;5068141;28;19990;-71
2023/10/18 08:52:16;;;;;;;;;;;7.50;84.40;;;;;;5066996;28;19979;-71
2023/10/18 08:54:43;;;;;;;;;;;7.50;84.40;;;;;;5066169;28;20553;-72
2023/10/18 08:57:11;;;;;;;;;;;7.50;84.30;;;;;;5066961;28;19989;-71
2023/10/18 08:59:45;;;;;;;;;;;7.50;84.40;;;;;;5067832;28;19976;-72
2023/10/18 09:02:12;;;;;;;;;;;7.50;84.40;;;;;;5064663;28;20527;-72
2023/10/18 09:04:44;;;;;;;;;;;7.50;84.40;;;;;;5068591;28;19991;-71
2023/10/18 09:09:59;;;;;;;;;;;7.60;84.40;;;;;;5066481;28;20128;-71
2023/10/18 09:12:33;;;;;;;;;;;7.50;84.30;;;;;;5066321;28;19979;-72
2023/10/18 09:15:00;;;;;;;;;;;7.60;84.40;;;;;;5063890;28;20042;-71
2023/10/18 09:17:27;;;;;;;;;;;7.60;84.30;;;;;;5064601;28;22349;-71
2023/10/18 09:19:56;;;;;;;;;;;7.60;84.30;;;;;;5066155;28;19979;-71
2023/10/18 09:22:24;;;;;;;;;;;7.60;84.30;;;;;;5067738;28;20703;-71
2023/10/18 09:24:51;;;;;;;;;;;7.70;84.30;;;;;;5072875;28;19998;-72
2023/10/18 09:27:18;;;;;;;;;;;7.70;84.20;;;;;;5065076;28;20607;-72
2023/10/18 09:29:45;;;;;;;;;;;7.70;84.10;;;;;;5067242;28;19979;-72
2023/10/18 09:32:32;;;;;;;;;;;7.80;84.30;;;;;;5068230;28;20002;-72
2023/10/18 09:35:03;;;;;;;;;;;7.80;84.10;;;;;;5065132;28;20019;-72
2023/10/18 09:37:35;;;;;;;;;;;7.90;84.20;;;;;;5062291;28;20010;-71
2023/10/18 09:40:03;;;;;;;;;;;7.90;84.10;;;;;;5070243;28;19987;-72
2023/10/18 09:42:30;;;;;;;;;;;8.00;83.90;;;;;;5065872;28;20455;-71
2023/10/18 09:44:56;;;;;;;;;;;8.10;83.70;;;;;;5069666;28;19999;-71
2023/10/18 09:47:24;;;;;;;;;;;8.10;83.70;;;;;;5061954;28;20007;-78
2023/10/18 09:49:50;;;;;;;;;;;8.20;83.50;;;;;;5062718;28;19979;-76
2023/10/18 09:52:18;;;;;;;;;;;8.30;83.30;;;;;;5063577;28;19976;-76
2023/10/18 09:54:49;;;;;;;;;;;8.30;83.20;;;;;;5060263;28;19999;-77
2023/10/18 09:57:23;;;;;;;;;;;8.40;83.00;;;;;;5060882;28;20333;-76
2023/10/18 09:59:51;;;;;;;;;;;8.50;82.80;;;;;;5062564;28;20479;-76
2023/10/18 10:02:17;;;;;;;;;;;8.60;82.80;;;;;;5058809;28;20094;-77
2023/10/18 10:04:44;;;;;;;;;;;8.60;82.60;;;;;;5061695;28;20002;-78
2023/10/18 10:07:37;;;;;;;;;;;8.60;82.60;;;;;;5060829;28;20504;-78
2023/10/18 10:10:08;;;;;;;;;;;8.70;82.70;;;;;;5063965;28;20144;-77
2023/10/18 10:12:36;;;;;;;;;;;8.80;82.50;;;;;;5059598;28;20073;-78
2023/10/18 10:15:13;;;;;;;;;;;8.90;82.40;;;;;;5062826;28;20007;-77
2023/10/18 10:17:41;;;;;;;;;;;8.90;82.50;;;;;;5059163;28;20005;-77
2023/10/18 10:20:11;;;;;;;;;;;9.00;82.30;;;;;;5060387;28;19986;-77
2023/10/18 10:22:38;;;;;;;;;;;9.00;82.10;;;;;;5062652;28;20054;-77
2023/10/18 10:25:11;;;;;;;;;;;9.00;82.00;;;;;;5055074;28;20003;-77
2023/10/18 10:27:49;;;;;;;;;;;9.20;82.10;;;;;;5065230;28;19979;-77
2023/10/18 10:30:28;;;;;;;;;;;9.20;81.80;;;;;;5059183;28;19985;-77
2023/10/18 10:32:58;;;;;;;;;;;9.20;81.70;;;;;;5060779;28;20020;-77
2023/10/18 10:35:25;;;;;;;;;;;9.30;81.80;;;;;;5062185;28;19999;-77
2023/10/18 10:37:52;;;;;;;;;;;9.30;81.90;;;;;;5062504;28;20007;-77
2023/10/18 10:43:12;;;;;;;;;;;9.30;81.80;;;;;;5061789;28;20038;-77
2023/10/18 10:45:43;;;;;;;;;;;9.30;82.10;;;;;;5065438;28;19999;-77
2023/10/18 10:48:30;;;;;;;;;;;9.30;82.10;;;;;;5061775;28;19975;-76
2023/10/18 10:51:06;;;;;;;;;;;9.30;82.20;;;;;;5064562;28;19979;-76
2023/10/18 10:53:33;;;;;;;;;;;9.30;82.20;;;;;;5063049;28;20810;-77
2023/10/18 10:56:16;;;;;;;;;;;9.30;82.60;;;;;;5062262;28;19991;-77
2023/10/18 10:58:45;;;;;;;;;;;9.30;82.70;;;;;;5063816;28;19998;-77
2023/10/18 11:01:12;;;;;;;;;;;9.30;82.70;;;;;;5062989;28;19991;-77
2023/10/18 11:03:53;;;;;;;;;;;9.30;82.60;;;;;;5063369;28;20682;-77
2023/10/18 11:06:24;;;;;;;;;;;9.30;82.60;;;;;;5064693;28;19995;-76
2023/10/18 11:08:51;;;;;;;;;;;9.30;82.90;;;;;;5063452;28;19976;-77
2023/10/18 11:11:21;;;;;;;;;;;9.40;83.10;;;;;;5063570;28;19984;-77
2023/10/18 11:13:48;;;;;;;;;;;9.40;83.00;;;;;;5062543;28;20126;-76
2023/10/18 11:16:16;;;;;;;;;;;9.40;83.00;;;;;;5059793;28;20014;-77
2023/10/18 11:18:43;;;;;;;;;;;9.40;83.20;;;;;;5062666;28;20587;-76
2023/10/18 11:21:18;;;;;;;;;;;9.40;83.20;;;;;;5067350;28;20473;-77
2023/10/18 11:23:46;;;;;;;;;;;9.40;83.30;;;;;;5060331;28;19987;-76
2023/10/18 11:26:19;;;;;;;;;;;9.40;83.20;;;;;;5062598;28;20094;-76
2023/10/18 11:28:47;;;;;;;;;;;9.50;83.20;;;;;;5061919;28;19987;-77
2023/10/18 11:31:14;;;;;;;;;;;9.50;83.30;;;;;;5064820;28;19990;-76
2023/10/18 11:33:56;;;;;;;;;;;9.50;83.60;;;;;;5061160;28;20106;-76
2023/10/18 11:36:27;;;;;;;;;;;9.50;83.20;;;;;;5065727;28;20010;-76
2023/10/18 11:39:18;;;;;;;;;;;9.50;83.30;;;;;;5063076;28;19994;-76
2023/10/18 11:41:45;;;;;;;;;;;9.50;83.40;;;;;;5060192;28;19991;-77
2023/10/18 11:44:16;;;;;;;;;;;9.50;83.20;;;;;;5064540;28;19980;-76
2023/10/18 11:46:46;;;;;;;;;;;9.60;83.20;;;;;;5064650;28;20864;-76
2023/10/18 11:49:13;;;;;;;;;;;9.60;83.10;;;;;;5059257;28;20132;-78
2023/10/18 11:51:44;;;;;;;;;;;9.60;83.30;;;;;;5063193;28;20026;-77
2023/10/18 11:54:12;;;;;;;;;;;9.60;83.10;;;;;;5066221;28;20037;-78
2023/10/18 11:56:38;;;;;;;;;;;9.60;83.20;;;;;;5067708;28;20486;-77
2023/10/18 11:59:06;;;;;;;;;;;9.70;83.20;;;;;;5069691;28;20492;-77
2023/10/18 12:01:34;;;;;;;;;;;9.70;83.30;;;;;;5063794;28;20049;-78
2023/10/18 12:04:01;;;;;;;;;;;9.70;83.20;;;;;;5070535;28;19975;-77
2023/10/18 12:06:28;;;;;;;;;;;9.70;83.40;;;;;;5062517;28;20114;-77
2023/10/18 12:11:35;;;;;;;;;;;9.70;83.70;;;;;;5061723;28;20058;-78
2023/10/18 12:14:04;;;;;;;;;;;9.80;83.50;;;;;;5067834;28;19979;-77
2023/10/18 12:16:32;;;;;;;;;;;9.80;83.30;;;;;;5063934;28;20028;-77
2023/10/18 12:19:00;;;;;;;;;;;9.90;83.50;;;;;;5063740;28;20025;-77
2023/10/18 12:21:29;;;;;;;;;;;9.90;83.40;;;;;;5065624;28;19982;-77
2023/10/18 12:23:56;;;;;;;;;;;9.90;83.30;;;;;;5064193;28;19971;-77
2023/10/18 12:26:24;;;;;;;;;;;9.90;83.30;;;;;;5066087;28;20561;-77
2023/10/18 12:28:51;;;;;;;;;;;10.00;83.40;;;;;;5066669;28;19987;-76
2023/10/18 12:31:26;;;;;;;;;;;10.00;83.30;;;;;;5065184;28;20071;-77
2023/10/18 12:33:57;;;;;;;;;;;10.10;83.20;;;;;;5067018;28;20028;-78
2023/10/18 12:36:32;;;;;;;;;;;10.10;83.40;;;;;;5070154;28;20003;-78
2023/10/18 12:38:59;;;;;;;;;;;10.10;83.40;;;;;;5071863;28;19974;-78
2023/10/18 12:41:31;;;;;;;;;;;10.20;83.40;;;;;;5068930;28;19979;-79
2023/10/18 12:43:58;;;;;;;;;;;10.20;83.60;;;;;;5067382;28;19982;-78
2023/10/18 12:46:25;;;;;;;;;;;10.20;83.50;;;;;;5070321;28;19999;-77
2023/10/18 12:48:51;;;;;;;;;;;10.30;83.40;;;;;;5066824;28;19972;-78
2023/10/18 12:51:18;;;;;;;;;;;10.30;83.30;;;;;;5070032;28;20459;-78
2023/10/18 12:53:47;;;;;;;;;;;10.30;83.30;;;;;;5064553;28;19982;-78
2023/10/18 12:56:30;;;;;;;;;;;10.40;83.30;;;;;;5064954;28;20000;-78
2023/10/18 12:58:58;;;;;;;;;;;10.40;83.50;;;;;;5064535;28;20088;-78
2023/10/18 13:01:31;;;;;;;;;;;10.40;83.20;;;;;;5062555;28;20046;-78
2023/10/18 13:03:57;;;;;;;;;;;10.40;83.20;;;;;;5063138;28;19976;-78
2023/10/18 13:06:30;;;;;;;;;;;10.50;83.30;;;;;;5060664;28;20001;-78
2023/10/18 13:09:15;;;;;;;;;;;10.50;83.20;;;;;;5059861;28;19975;-78
2023/10/18 13:11:46;;;;;;;;;;;10.50;83.40;;;;;;5059409;28;19982;-78
2023/10/18 13:14:14;;;;;;;;;;;10.50;83.50;;;;;;5065661;28;19991;-77
2023/10/18 13:16:41;;;;;;;;;;;10.60;83.40;;;;;;5065626;28;19991;-78
2023/10/18 13:19:08;;;;;;;;;;;10.60;83.30;;;;;;5064945;28;19979;-78
2023/10/18 13:21:35;;;;;;;;;;;10.60;83.00;;;;;;5066942;28;19979;-78
2023/10/18 13:24:16;;;;;;;;;;;10.60;83.10;;;;;;5063947;28;20001;-78
2023/10/18 13:26:43;;;;;;;;;;;10.60;83.10;;;;;;5070694;28;19976;-78
2023/10/18 13:29:15;;;;;;;;;;;10.70;82.80;;;;;;5064367;28;20010;-78
2023/10/18 13:31:44;;;;;;;;;;;10.70;83.00;;;;;;5065379;28;19991;-78
2023/10/18 13:34:18;;;;;;;;;;;10.70;83.20;;;;;;5065631;28;19975;-78
2023/10/18 13:36:45;;;;;;;;;;;10.70;83.00;;;;;;5065893;28;19985;-78
2023/10/18 13:39:13;;;;;;;;;;;10.80;83.20;;;;;;5065002;28;20029;-78
2023/10/18 13:41:40;;;;;;;;;;;10.70;82.90;;;;;;5064780;28;19975;-70
2023/10/18 13:44:08;;;;;;;;;;;10.80;83.00;;;;;;5071002;28;20544;-71
2023/10/18 13:46:36;;;;;;;;;;;10.80;83.30;;;;;;5065776;28;20045;-70
2023/10/18 13:49:08;;;;;;;;;;;10.80;83.20;;;;;;5071049;28;20009;-70
2023/10/18 13:51:37;;;;;;;;;;;10.80;83.00;;;;;;5068074;28;20092;-70
2023/10/18 13:54:04;;;;;;;;;;;10.80;83.10;;;;;;5067828;28;19982;-70
2023/10/18 13:56:32;;;;;;;;;;;10.80;82.90;;;;;;5064535;28;20006;-70
2023/10/18 13:58:57;;;;;;;;;;;10.90;83.10;;;;;;5063700;28;19979;-70
2023/10/18 14:01:25;;;;;;;;;;;10.90;83.00;;;;;;5067051;28;20361;-70
2023/10/18 14:03:51;;;;;;;;;;;10.90;83.00;;;;;;5064584;28;19975;-70
2023/10/18 14:06:18;;;;;;;;;;;10.90;83.10;;;;;;5064063;28;20006;-76
2023/10/18 14:08:45;;;;;;;;;;;10.90;83.00;;;;;;5055296;28;19979;-76
2023/10/18 14:11:13;;;;;;;;;;;10.90;83.00;;;;;;5061285;28;19983;-76
2023/10/18 14:13:43;;;;;;;;;;;10.90;83.40;;;;;;5061174;28;20688;-76
2023/10/18 14:16:12;;;;;;;;;;;11.00;83.20;;;;;;5060150;28;20477;-75
2023/10/18 14:18:40;;;;;;;;;;;11.00;83.10;;;;;;5069509;28;20499;-76
2023/10/18 14:21:12;;;;;;;;;;;11.00;83.10;;;;;;5065821;28;19994;-76
2023/10/18 14:23:39;;;;;;;;;;;11.00;83.10;;;;;;5069963;28;19975;-77
2023/10/18 14:26:05;;;;;;;;;;;11.00;83.20;;;;;;5069647;28;20010;-76
2023/10/18 14:28:32;;;;;;;;;;;11.00;83.50;;;;;;5071040;28;19976;-76
2023/10/18 14:31:02;;;;;;;;;;;11.10;83.70;;;;;;5067087;28;20464;-74
2023/10/18 14:33:29;;;;;;;;;;;11.20;86.60;;;;;;5064105;28;20078;-74
2023/10/18 14:35:55;;;;;;;;;;;11.30;88.30;;;;;;5066568;28;20007;-76
2023/10/18 14:38:22;;;;;;;;;;;11.40;87.80;;;;;;5064148;28;19976;-76
2023/10/18 14:40:51;;;;;;;;;;;11.60;87.50;;;;;;5072187;28;19982;-75
2023/10/18 14:43:19;;;;;;;;;;;11.70;87.10;;;;;;5067667;28;19987;-75
2023/10/18 14:45:46;;;;;;;;;;;11.80;86.70;;;;;;5069347;28;19995;-75
2023/10/18 14:48:15;;;;;;;;;;;11.90;86.40;;;;;;5067114;28;19983;-76
2023/10/18 14:50:42;;;;;;;;;;;12.10;86.20;;;;;;5067580;28;19980;-75
2023/10/18 14:53:09;;;;;;;;;;;12.10;85.80;;;;;;5065891;28;19979;-76